createdAt,value
2018-08-31T00:01:58.124Z,2.10
2018-08-31T00:02:58.038Z,3.20
2018-08-31T00:03:58.053Z,2.70
2018-08-31T00:04:57.976Z,2.70
2018-08-31T00:05:57.946Z,2.50
2018-08-31T00:06:58.455Z,2.80
2018-08-31T00:07:57.884Z,3.10
2018-08-31T00:08:57.876Z,5.70
2018-08-31T00:09:57.830Z,10.30
2018-08-31T00:10:57.816Z,17.20
2018-08-31T00:11:57.772Z,15.60
2018-08-31T00:13:57.702Z,13.40
2018-08-31T00:14:57.659Z,14.40
2018-08-31T00:15:57.621Z,14.00
2018-08-31T00:16:57.616Z,13.60
2018-08-31T00:17:57.798Z,14.30
2018-08-31T00:18:58.144Z,15.50
2018-08-31T00:19:57.499Z,19.40
2018-08-31T00:20:57.470Z,19.50
2018-08-31T00:21:57.468Z,18.30
2018-08-31T00:22:57.638Z,22.30
2018-08-31T00:23:57.395Z,23.90
2018-08-31T00:24:57.557Z,17.20
2018-08-31T00:25:57.318Z,12.90
2018-08-31T00:26:57.569Z,9.80
2018-08-31T00:27:57.464Z,8.10
2018-08-31T00:28:57.236Z,8.00
2018-08-31T00:29:57.544Z,7.40
2018-08-31T00:30:57.167Z,5.20
2018-08-31T00:31:57.140Z,4.40
2018-08-31T00:32:57.095Z,4.70
2018-08-31T00:33:57.117Z,3.60
2018-08-31T00:34:57.043Z,4.20
2018-08-31T00:35:56.996Z,3.80
2018-08-31T00:36:56.972Z,3.10
2018-08-31T00:37:56.938Z,3.70
2018-08-31T00:38:56.924Z,3.10
2018-08-31T00:39:56.879Z,3.70
2018-08-31T00:40:56.842Z,3.50
2018-08-31T00:41:56.895Z,3.10
2018-08-31T00:42:56.785Z,2.90
2018-08-31T00:43:56.767Z,2.90
2018-08-31T00:44:56.762Z,2.80
2018-08-31T00:45:56.703Z,2.70
2018-08-31T00:46:56.666Z,2.80
2018-08-31T00:47:56.623Z,3.00
2018-08-31T00:48:56.611Z,2.80
2018-08-31T00:49:56.562Z,3.10
2018-08-31T00:50:56.537Z,2.60
2018-08-31T00:51:56.505Z,3.20
2018-08-31T00:52:56.473Z,3.20
2018-08-31T00:53:56.465Z,2.50
2018-08-31T00:54:56.414Z,2.80
2018-08-31T00:55:56.374Z,3.30
2018-08-31T00:56:56.369Z,3.00
2018-08-31T00:57:56.337Z,3.40
2018-08-31T00:58:56.277Z,3.10
2018-08-31T00:59:56.249Z,2.70
2018-08-31T01:00:56.217Z,2.80
2018-08-31T01:01:56.191Z,3.30
2018-08-31T01:02:56.172Z,3.20
2018-08-31T01:03:56.122Z,3.40
2018-08-31T01:04:56.113Z,2.70
2018-08-31T01:05:56.066Z,3.00
2018-08-31T01:06:56.030Z,3.00
2018-08-31T01:07:56.024Z,3.30
2018-08-31T01:08:55.992Z,3.10
2018-08-31T01:09:55.942Z,3.30
2018-08-31T01:10:55.903Z,2.70
2018-08-31T01:11:55.885Z,2.90
2018-08-31T01:12:55.830Z,3.20
2018-08-31T01:13:55.812Z,3.40
2018-08-31T01:14:55.828Z,3.30
2018-08-31T01:15:55.746Z,2.90
2018-08-31T01:16:55.709Z,3.00
2018-08-31T01:17:55.686Z,2.80
2018-08-31T01:18:55.653Z,2.90
2018-08-31T01:19:55.652Z,3.20
2018-08-31T01:20:55.582Z,2.70
2018-08-31T01:21:55.560Z,3.30
2018-08-31T01:22:55.528Z,2.80
2018-08-31T01:23:55.481Z,3.10
2018-08-31T01:24:55.454Z,2.60
2018-08-31T01:25:55.429Z,2.80
2018-08-31T01:26:55.573Z,3.00
2018-08-31T01:27:55.359Z,3.10
2018-08-31T01:28:55.316Z,3.00
2018-08-31T01:29:55.291Z,3.10
2018-08-31T01:30:55.265Z,3.40
2018-08-31T01:31:55.237Z,3.50
2018-08-31T01:32:55.210Z,3.30
2018-08-31T01:33:55.170Z,3.00
2018-08-31T01:34:55.147Z,3.50
2018-08-31T01:35:55.095Z,3.10
2018-08-31T01:36:55.074Z,2.70
2018-08-31T01:37:55.028Z,3.50
2018-08-31T01:38:55.008Z,3.40
2018-08-31T01:39:54.971Z,3.20
2018-08-31T01:40:55.089Z,3.30
2018-08-31T01:41:54.959Z,3.40
2018-08-31T01:42:54.886Z,3.20
2018-08-31T01:43:54.846Z,3.10
2018-08-31T01:44:54.808Z,3.10
2018-08-31T01:45:54.781Z,2.80
2018-08-31T01:46:55.053Z,3.20
2018-08-31T01:47:54.721Z,3.40
2018-08-31T01:48:54.685Z,2.90
2018-08-31T01:49:54.661Z,3.10
2018-08-31T01:50:54.624Z,2.90
2018-08-31T01:51:54.588Z,3.50
2018-08-31T01:52:54.699Z,3.50
2018-08-31T01:53:54.515Z,3.60
2018-08-31T01:54:54.487Z,3.30
2018-08-31T01:55:54.455Z,2.90
2018-08-31T01:56:54.417Z,2.90
2018-08-31T01:57:54.389Z,3.40
2018-08-31T01:58:54.369Z,3.40
2018-08-31T01:59:54.337Z,3.10
2018-08-31T02:00:54.299Z,3.20
2018-08-31T02:01:54.269Z,2.90
2018-08-31T02:02:54.229Z,3.10
2018-08-31T02:03:54.260Z,3.30
2018-08-31T02:04:54.184Z,2.50
2018-08-31T02:05:54.154Z,3.40
2018-08-31T02:06:54.120Z,3.50
2018-08-31T02:07:54.069Z,3.10
2018-08-31T02:08:54.041Z,2.60
2018-08-31T02:09:53.997Z,3.30
2018-08-31T02:10:53.981Z,3.00
2018-08-31T02:11:53.942Z,3.70
2018-08-31T02:12:53.906Z,3.20
2018-08-31T02:13:53.879Z,2.80
2018-08-31T02:14:53.883Z,3.30
2018-08-31T02:15:53.823Z,2.40
2018-08-31T02:16:53.778Z,3.20
2018-08-31T02:17:53.752Z,3.00
2018-08-31T02:18:53.708Z,3.80
2018-08-31T02:19:53.681Z,3.30
2018-08-31T02:20:53.649Z,2.60
2018-08-31T02:21:53.616Z,2.80
2018-08-31T02:22:53.582Z,2.60
2018-08-31T02:23:53.570Z,3.10
2018-08-31T02:24:53.513Z,2.90
2018-08-31T02:25:53.482Z,2.80
2018-08-31T02:26:53.461Z,2.90
2018-08-31T02:27:53.415Z,2.30
2018-08-31T02:28:53.418Z,2.70
2018-08-31T02:29:53.348Z,2.80
2018-08-31T02:30:53.322Z,2.90
2018-08-31T02:31:53.301Z,2.90
2018-08-31T02:32:53.254Z,3.10
2018-08-31T02:33:53.247Z,3.00
2018-08-31T02:34:53.208Z,3.00
2018-08-31T02:35:53.463Z,3.20
2018-08-31T02:36:53.118Z,2.60
2018-08-31T02:37:53.100Z,2.90
2018-08-31T02:38:53.067Z,3.00
2018-08-31T02:39:53.039Z,2.90
2018-08-31T02:40:52.999Z,2.80
2018-08-31T02:41:52.967Z,3.10
2018-08-31T02:42:52.946Z,2.20
2018-08-31T02:43:52.893Z,2.70
2018-08-31T02:44:52.866Z,3.30
2018-08-31T02:45:52.828Z,2.70
2018-08-31T02:46:53.096Z,2.80
2018-08-31T02:47:52.786Z,2.70
2018-08-31T02:48:52.744Z,2.50
2018-08-31T02:49:52.702Z,2.80
2018-08-31T02:50:52.703Z,2.70
2018-08-31T02:51:52.636Z,2.50
2018-08-31T02:52:52.813Z,3.20
2018-08-31T02:53:52.574Z,2.90
2018-08-31T02:54:52.539Z,2.70
2018-08-31T02:55:52.517Z,2.30
2018-08-31T02:56:52.473Z,2.00
2018-08-31T02:57:52.433Z,2.40
2018-08-31T02:58:52.420Z,2.50
2018-08-31T02:59:52.385Z,2.90
2018-08-31T03:00:52.346Z,2.60
2018-08-31T03:01:52.319Z,2.20
2018-08-31T03:02:52.271Z,2.50
2018-08-31T03:03:52.247Z,2.50
2018-08-31T03:04:52.229Z,2.80
2018-08-31T03:05:52.185Z,2.70
2018-08-31T03:06:52.154Z,2.30
2018-08-31T03:07:52.130Z,2.70
2018-08-31T03:08:52.087Z,2.50
2018-08-31T03:09:52.053Z,2.40
2018-08-31T03:10:52.028Z,2.50
2018-08-31T03:11:51.993Z,2.60
2018-08-31T03:12:51.958Z,2.60
2018-08-31T03:13:51.924Z,2.50
2018-08-31T03:14:51.895Z,2.90
2018-08-31T03:15:51.856Z,2.10
2018-08-31T03:16:51.831Z,2.80
2018-08-31T03:17:51.789Z,3.40
2018-08-31T03:18:51.760Z,3.00
2018-08-31T03:19:51.730Z,2.90
2018-08-31T03:20:51.701Z,2.90
2018-08-31T03:21:51.662Z,3.00
2018-08-31T03:22:51.625Z,2.80
2018-08-31T03:23:51.599Z,2.80
2018-08-31T03:24:51.574Z,2.60
2018-08-31T03:25:51.528Z,2.50
2018-08-31T03:26:51.505Z,2.90
2018-08-31T03:27:51.676Z,2.60
2018-08-31T03:28:51.449Z,2.50
2018-08-31T03:29:51.436Z,2.50
2018-08-31T03:30:51.370Z,2.70
2018-08-31T03:31:51.350Z,2.40
2018-08-31T03:32:51.313Z,3.30
2018-08-31T03:33:51.282Z,3.30
2018-08-31T03:34:51.384Z,2.90
2018-08-31T03:35:51.203Z,2.80
2018-08-31T03:36:51.190Z,2.80
2018-08-31T03:37:51.137Z,2.70
2018-08-31T03:38:51.115Z,2.80
2018-08-31T03:39:51.072Z,2.40
2018-08-31T03:40:51.041Z,2.70
2018-08-31T03:41:51.004Z,2.40
2018-08-31T03:42:50.971Z,2.60
2018-08-31T03:43:50.950Z,2.70
2018-08-31T03:44:50.905Z,2.50
2018-08-31T03:45:51.078Z,3.10
2018-08-31T03:46:50.841Z,2.30
2018-08-31T03:47:50.818Z,2.70
2018-08-31T03:48:50.762Z,2.60
2018-08-31T03:49:50.797Z,2.10
2018-08-31T03:50:50.700Z,2.50
2018-08-31T03:51:50.873Z,2.10
2018-08-31T03:52:50.733Z,2.90
2018-08-31T03:53:50.610Z,2.40
2018-08-31T03:54:50.595Z,2.70
2018-08-31T03:55:50.554Z,3.00
2018-08-31T03:56:50.520Z,2.50
2018-08-31T03:57:50.478Z,2.20
2018-08-31T03:58:50.433Z,2.40
2018-08-31T03:59:50.412Z,2.90
2018-08-31T04:00:50.367Z,4.00
2018-08-31T04:01:50.342Z,2.90
2018-08-31T04:02:50.306Z,2.40
2018-08-31T04:03:50.311Z,3.00
2018-08-31T04:04:50.285Z,2.40
2018-08-31T04:05:50.253Z,2.40
2018-08-31T04:06:50.219Z,3.20
2018-08-31T04:07:50.211Z,3.10
2018-08-31T04:08:50.170Z,3.10
2018-08-31T04:09:50.135Z,3.20
2018-08-31T04:10:50.089Z,2.70
2018-08-31T04:11:50.074Z,2.60
2018-08-31T04:12:50.012Z,2.90
2018-08-31T04:13:49.988Z,3.20
2018-08-31T04:14:49.986Z,2.70
2018-08-31T04:15:49.929Z,2.40
2018-08-31T04:16:49.898Z,2.30
2018-08-31T04:17:49.868Z,2.30
2018-08-31T04:18:49.828Z,2.50
2018-08-31T04:19:49.855Z,2.30
2018-08-31T04:20:50.013Z,2.60
2018-08-31T04:21:49.743Z,2.60
2018-08-31T04:22:49.688Z,2.60
2018-08-31T04:23:49.737Z,2.60
2018-08-31T04:24:49.633Z,3.10
2018-08-31T04:25:49.581Z,2.80
2018-08-31T04:26:49.550Z,2.80
2018-08-31T04:27:49.522Z,2.80
2018-08-31T04:28:49.937Z,2.60
2018-08-31T04:29:49.468Z,2.70
2018-08-31T04:30:49.422Z,2.90
2018-08-31T04:31:49.393Z,2.50
2018-08-31T04:32:49.356Z,2.60
2018-08-31T04:33:49.347Z,2.40
2018-08-31T04:35:49.283Z,1.70
2018-08-31T04:36:49.239Z,2.50
2018-08-31T04:37:49.205Z,2.70
2018-08-31T04:38:49.161Z,2.10
2018-08-31T04:39:49.136Z,2.60
2018-08-31T04:40:49.104Z,2.50
2018-08-31T04:41:49.067Z,2.40
2018-08-31T04:42:49.110Z,2.60
2018-08-31T04:43:48.989Z,2.90
2018-08-31T04:44:49.371Z,2.90
2018-08-31T04:45:48.951Z,2.50
2018-08-31T04:46:48.901Z,2.10
2018-08-31T04:47:48.880Z,2.50
2018-08-31T04:48:48.829Z,2.30
2018-08-31T04:49:48.809Z,2.50
2018-08-31T04:50:48.781Z,2.60
2018-08-31T04:51:48.739Z,2.30
2018-08-31T04:52:48.699Z,2.60
2018-08-31T04:53:48.668Z,1.80
2018-08-31T04:54:48.646Z,2.00
2018-08-31T04:55:48.604Z,2.50
2018-08-31T04:56:48.578Z,2.10
2018-08-31T04:57:48.545Z,2.60
2018-08-31T04:58:48.553Z,2.50
2018-08-31T04:59:48.466Z,2.60
2018-08-31T05:00:48.436Z,2.30
2018-08-31T05:01:48.406Z,2.70
2018-08-31T05:02:48.376Z,2.50
2018-08-31T05:03:48.339Z,2.20
2018-08-31T05:04:48.318Z,2.60
2018-08-31T05:05:48.332Z,2.20
2018-08-31T05:06:48.239Z,2.40
2018-08-31T05:07:48.208Z,2.20
2018-08-31T05:08:48.186Z,1.90
2018-08-31T05:09:48.140Z,2.20
2018-08-31T05:10:48.098Z,2.50
2018-08-31T05:11:48.072Z,2.50
2018-08-31T05:12:48.038Z,2.30
2018-08-31T05:13:47.995Z,2.80
2018-08-31T05:14:47.974Z,1.90
2018-08-31T05:15:47.954Z,2.40
2018-08-31T05:16:48.062Z,2.30
2018-08-31T05:17:47.867Z,1.80
2018-08-31T05:18:47.830Z,2.50
2018-08-31T05:19:47.795Z,2.50
2018-08-31T05:20:47.768Z,2.20
2018-08-31T05:21:47.749Z,2.40
2018-08-31T05:22:47.777Z,2.20
2018-08-31T05:23:47.707Z,2.00
2018-08-31T05:24:47.645Z,2.40
2018-08-31T05:25:47.592Z,2.00
2018-08-31T05:26:47.572Z,2.90
2018-08-31T05:27:47.543Z,2.60
2018-08-31T05:28:47.514Z,2.50
2018-08-31T05:29:47.466Z,2.40
2018-08-31T05:30:47.436Z,2.20
2018-08-31T05:31:47.417Z,2.00
2018-08-31T05:32:47.381Z,2.40
2018-08-31T05:33:47.331Z,2.10
2018-08-31T05:34:47.414Z,2.10
2018-08-31T05:35:47.272Z,2.50
2018-08-31T05:36:47.252Z,2.60
2018-08-31T05:37:47.212Z,2.20
2018-08-31T05:38:47.426Z,2.20
2018-08-31T05:39:47.133Z,2.20
2018-08-31T05:40:47.100Z,2.00
2018-08-31T05:41:47.063Z,2.10
2018-08-31T05:42:47.036Z,2.20
2018-08-31T05:43:46.989Z,2.20
2018-08-31T05:44:47.369Z,2.00
2018-08-31T05:45:46.925Z,2.30
2018-08-31T05:46:46.925Z,2.20
2018-08-31T05:47:46.872Z,1.90
2018-08-31T05:48:46.816Z,2.40
2018-08-31T05:49:46.793Z,2.40
2018-08-31T05:50:46.910Z,2.20
2018-08-31T05:51:46.745Z,2.30
2018-08-31T05:52:46.708Z,2.50
2018-08-31T05:53:46.651Z,2.10
2018-08-31T05:54:46.613Z,2.00
2018-08-31T05:55:46.591Z,1.90
2018-08-31T05:56:46.550Z,2.10
2018-08-31T05:57:46.521Z,2.70
2018-08-31T05:58:46.490Z,1.80
2018-08-31T05:59:46.470Z,2.30
2018-08-31T06:00:46.611Z,2.10
2018-08-31T06:01:46.386Z,2.60
2018-08-31T06:02:46.361Z,1.60
2018-08-31T06:03:46.317Z,1.90
2018-08-31T06:04:46.313Z,3.80
2018-08-31T06:05:46.263Z,2.40
2018-08-31T06:06:46.213Z,2.40
2018-08-31T06:07:46.188Z,1.80
2018-08-31T06:08:46.146Z,2.40
2018-08-31T06:09:46.116Z,2.00
2018-08-31T06:10:46.082Z,2.00
2018-08-31T06:11:46.511Z,2.00
2018-08-31T06:12:46.022Z,2.20
2018-08-31T06:13:45.991Z,3.50
2018-08-31T06:14:45.939Z,3.00
2018-08-31T06:15:45.912Z,2.30
2018-08-31T06:16:45.879Z,2.50
2018-08-31T06:17:45.844Z,2.60
2018-08-31T06:18:45.778Z,1.90
2018-08-31T06:19:45.748Z,2.00
2018-08-31T06:20:45.705Z,2.10
2018-08-31T06:21:45.659Z,2.30
2018-08-31T06:22:45.638Z,2.60
2018-08-31T06:23:45.609Z,2.20
2018-08-31T06:24:45.568Z,2.10
2018-08-31T06:25:45.585Z,1.90
2018-08-31T06:26:45.497Z,1.80
2018-08-31T06:27:45.492Z,1.90
2018-08-31T06:28:45.777Z,2.20
2018-08-31T06:29:45.403Z,2.20
2018-08-31T06:30:45.369Z,2.20
2018-08-31T06:31:45.333Z,2.30
2018-08-31T06:32:45.394Z,2.40
2018-08-31T06:33:45.305Z,2.20
2018-08-31T06:34:45.227Z,2.00
2018-08-31T06:35:45.224Z,2.10
2018-08-31T06:36:45.168Z,2.00
2018-08-31T06:37:45.116Z,2.50
2018-08-31T06:38:45.093Z,2.50
2018-08-31T06:39:45.048Z,2.60
2018-08-31T06:40:45.077Z,2.10
2018-08-31T06:41:44.982Z,2.20
2018-08-31T06:42:44.954Z,1.90
2018-08-31T06:43:44.925Z,1.80
2018-08-31T06:44:45.188Z,2.30
2018-08-31T06:45:44.854Z,2.50
2018-08-31T06:46:44.819Z,2.40
2018-08-31T06:47:44.788Z,2.80
2018-08-31T06:48:44.763Z,2.90
2018-08-31T06:49:44.716Z,2.30
2018-08-31T06:50:44.687Z,2.00
2018-08-31T06:51:44.649Z,1.70
2018-08-31T06:52:44.616Z,2.00
2018-08-31T06:53:44.573Z,2.40
2018-08-31T06:54:44.586Z,2.30
2018-08-31T06:55:44.514Z,2.30
2018-08-31T06:56:44.473Z,2.50
2018-08-31T06:57:44.434Z,2.40
2018-08-31T06:58:44.411Z,2.00
2018-08-31T06:59:44.377Z,1.80
2018-08-31T07:00:44.333Z,1.90
2018-08-31T07:01:44.311Z,2.20
2018-08-31T07:02:44.267Z,2.50
2018-08-31T07:03:44.262Z,2.40
2018-08-31T07:04:44.201Z,2.20
2018-08-31T07:05:44.168Z,1.80
2018-08-31T07:06:44.167Z,1.90
2018-08-31T07:07:44.105Z,1.80
2018-08-31T07:08:44.085Z,1.90
2018-08-31T07:09:44.029Z,2.10
2018-08-31T07:10:43.996Z,2.00
2018-08-31T07:11:44.237Z,2.00
2018-08-31T07:12:43.933Z,1.90
2018-08-31T07:13:43.891Z,2.60
2018-08-31T07:14:43.880Z,2.00
2018-08-31T07:15:43.828Z,1.90
2018-08-31T07:16:43.823Z,2.00
2018-08-31T07:17:44.062Z,2.30
2018-08-31T07:18:43.726Z,2.20
2018-08-31T07:19:43.763Z,2.50
2018-08-31T07:20:43.655Z,2.20
2018-08-31T07:21:43.628Z,2.10
2018-08-31T07:22:43.618Z,2.20
2018-08-31T07:23:43.553Z,1.80
2018-08-31T07:24:43.560Z,1.70
2018-08-31T07:25:43.495Z,1.90
2018-08-31T07:26:43.474Z,2.20
2018-08-31T07:27:43.425Z,2.20
2018-08-31T07:28:43.768Z,2.00
2018-08-31T07:29:43.352Z,2.60
2018-08-31T07:30:43.343Z,1.80
2018-08-31T07:31:43.279Z,1.70
2018-08-31T07:32:43.252Z,1.90
2018-08-31T07:33:43.217Z,2.00
2018-08-31T07:34:43.197Z,2.20
2018-08-31T07:35:43.158Z,1.90
2018-08-31T07:36:43.110Z,2.20
2018-08-31T07:37:43.080Z,2.40
2018-08-31T07:38:43.049Z,2.10
2018-08-31T07:39:43.208Z,1.90
2018-08-31T07:40:42.995Z,2.10
2018-08-31T07:41:42.944Z,2.00
2018-08-31T07:42:42.911Z,2.80
2018-08-31T07:43:42.878Z,2.30
2018-08-31T07:44:42.834Z,2.30
2018-08-31T07:45:43.226Z,2.70
2018-08-31T07:46:42.766Z,2.70
2018-08-31T07:47:42.752Z,2.30
2018-08-31T07:48:42.733Z,2.40
2018-08-31T07:49:42.667Z,1.90
2018-08-31T07:50:42.649Z,2.10
2018-08-31T07:51:42.804Z,2.10
2018-08-31T07:52:42.569Z,2.30
2018-08-31T07:53:42.542Z,2.50
2018-08-31T07:54:42.512Z,2.40
2018-08-31T07:55:42.471Z,1.70
2018-08-31T07:56:42.433Z,1.80
2018-08-31T07:57:42.387Z,1.80
2018-08-31T07:58:42.352Z,2.30
2018-08-31T07:59:42.336Z,1.90
2018-08-31T08:00:42.289Z,2.80
2018-08-31T08:01:42.253Z,1.90
2018-08-31T08:02:42.235Z,2.00
2018-08-31T08:03:42.186Z,1.80
2018-08-31T08:04:42.163Z,1.90
2018-08-31T08:05:42.196Z,1.80
2018-08-31T08:06:42.078Z,2.40
2018-08-31T08:07:42.363Z,2.10
2018-08-31T08:08:42.020Z,2.10
2018-08-31T08:09:41.992Z,2.00
2018-08-31T08:10:41.955Z,2.10
2018-08-31T08:11:41.919Z,1.70
2018-08-31T08:12:41.915Z,1.90
2018-08-31T08:13:42.002Z,2.00
2018-08-31T08:14:41.862Z,2.00
2018-08-31T08:15:41.796Z,2.20
2018-08-31T08:16:41.758Z,2.30
2018-08-31T08:17:41.700Z,2.50
2018-08-31T08:18:41.671Z,2.70
2018-08-31T08:19:41.738Z,1.80
2018-08-31T08:20:41.597Z,2.00
2018-08-31T08:21:41.569Z,2.00
2018-08-31T08:22:41.538Z,2.20
2018-08-31T08:23:41.499Z,2.10
2018-08-31T08:24:41.519Z,2.40
2018-08-31T08:25:41.437Z,1.90
2018-08-31T08:26:41.404Z,2.40
2018-08-31T08:27:41.364Z,2.40
2018-08-31T08:28:41.327Z,2.20
2018-08-31T08:29:41.556Z,2.20
2018-08-31T08:30:41.264Z,2.30
2018-08-31T08:31:41.230Z,1.70
2018-08-31T08:32:41.202Z,1.90
2018-08-31T08:33:41.156Z,2.20
2018-08-31T08:34:41.427Z,2.30
2018-08-31T08:35:41.088Z,2.60
2018-08-31T08:36:41.055Z,2.50
2018-08-31T08:37:41.018Z,1.80
2018-08-31T08:38:40.989Z,2.10
2018-08-31T08:39:40.949Z,1.80
2018-08-31T08:40:41.073Z,2.10
2018-08-31T08:41:40.900Z,2.20
2018-08-31T08:42:40.852Z,1.90
2018-08-31T08:43:40.842Z,1.90
2018-08-31T08:44:40.786Z,2.20
2018-08-31T08:45:40.744Z,2.10
2018-08-31T08:46:40.710Z,1.80
2018-08-31T08:47:40.688Z,1.90
2018-08-31T08:48:40.690Z,2.00
2018-08-31T08:49:40.610Z,2.10
2018-08-31T08:50:40.579Z,2.30
2018-08-31T08:51:40.782Z,2.20
2018-08-31T08:52:40.502Z,2.30
2018-08-31T08:53:40.470Z,2.80
2018-08-31T08:54:40.473Z,2.10
2018-08-31T08:55:40.399Z,2.40
2018-08-31T08:56:40.381Z,1.90
2018-08-31T08:57:40.333Z,2.00
2018-08-31T08:58:40.303Z,1.80
2018-08-31T08:59:40.267Z,2.30
2018-08-31T09:00:40.222Z,2.60
2018-08-31T09:01:40.197Z,1.80
2018-08-31T09:02:40.148Z,2.50
2018-08-31T09:03:40.120Z,1.80
2018-08-31T09:04:40.088Z,2.00
2018-08-31T09:05:40.089Z,2.20
2018-08-31T09:06:40.024Z,2.00
2018-08-31T09:07:40.385Z,2.50
2018-08-31T09:08:39.950Z,2.00
2018-08-31T09:09:39.906Z,2.40
2018-08-31T09:10:39.886Z,2.20
2018-08-31T09:11:39.847Z,2.40
2018-08-31T09:12:39.818Z,2.20
2018-08-31T09:13:39.967Z,2.30
2018-08-31T09:14:39.739Z,2.50
2018-08-31T09:15:39.769Z,2.00
2018-08-31T09:16:39.668Z,1.80
2018-08-31T09:17:39.629Z,1.90
2018-08-31T09:18:39.599Z,2.20
2018-08-31T09:19:39.564Z,2.20
2018-08-31T09:20:39.540Z,2.40
2018-08-31T09:21:39.493Z,2.40
2018-08-31T09:22:39.469Z,2.50
2018-08-31T09:23:39.435Z,1.80
2018-08-31T09:24:39.704Z,2.10
2018-08-31T09:25:39.365Z,2.70
2018-08-31T09:26:39.335Z,2.00
2018-08-31T09:27:39.310Z,2.50
2018-08-31T09:28:39.258Z,2.10
2018-08-31T09:29:39.221Z,2.40
2018-08-31T09:30:39.186Z,2.00
2018-08-31T09:31:39.158Z,2.30
2018-08-31T09:32:39.147Z,2.20
2018-08-31T09:33:39.074Z,2.50
2018-08-31T09:34:39.051Z,2.00
2018-08-31T09:35:39.218Z,2.20
2018-08-31T09:36:38.972Z,1.90
2018-08-31T09:37:38.945Z,2.70
2018-08-31T09:38:38.903Z,2.20
2018-08-31T09:39:38.884Z,2.50
2018-08-31T09:40:38.861Z,2.50
2018-08-31T09:41:39.277Z,2.40
2018-08-31T09:42:38.851Z,2.40
2018-08-31T09:43:38.757Z,2.20
2018-08-31T09:44:38.705Z,2.30
2018-08-31T09:45:39.264Z,2.30
2018-08-31T09:46:38.664Z,2.30
2018-08-31T09:47:38.988Z,2.90
2018-08-31T09:48:38.566Z,2.70
2018-08-31T09:49:38.575Z,2.90
2018-08-31T09:50:38.534Z,2.50
2018-08-31T09:51:38.453Z,2.10
2018-08-31T09:52:38.437Z,2.30
2018-08-31T09:53:38.439Z,2.40
2018-08-31T09:54:38.381Z,2.50
2018-08-31T09:55:38.311Z,2.50
2018-08-31T09:56:38.271Z,2.70
2018-08-31T09:57:38.244Z,2.80
2018-08-31T09:58:38.219Z,2.00
2018-08-31T09:59:38.246Z,2.20
2018-08-31T10:00:38.146Z,2.30
2018-08-31T10:01:38.105Z,2.40
2018-08-31T10:02:38.070Z,2.40
2018-08-31T10:03:38.040Z,2.80
2018-08-31T10:04:37.995Z,2.70
2018-08-31T10:05:37.964Z,2.70
2018-08-31T10:06:37.939Z,2.10
2018-08-31T10:07:37.894Z,2.50
2018-08-31T10:08:37.858Z,2.30
2018-08-31T10:09:38.019Z,2.40
2018-08-31T10:10:37.932Z,2.00
2018-08-31T10:11:38.424Z,2.80
2018-08-31T10:12:37.780Z,2.90
2018-08-31T10:13:37.940Z,2.40
2018-08-31T10:14:37.755Z,2.40
2018-08-31T10:15:37.724Z,2.10
2018-08-31T10:16:37.587Z,2.30
2018-08-31T10:17:37.704Z,2.00
2018-08-31T10:18:37.687Z,2.20
2018-08-31T10:19:37.495Z,2.70
2018-08-31T10:20:37.563Z,2.70
2018-08-31T10:21:37.429Z,2.40
2018-08-31T10:22:37.592Z,2.60
2018-08-31T10:23:37.350Z,2.20
2018-08-31T10:24:37.325Z,2.10
2018-08-31T10:25:37.295Z,2.40
2018-08-31T10:26:37.296Z,2.60
2018-08-31T10:27:37.224Z,2.50
2018-08-31T10:28:37.190Z,2.70
2018-08-31T10:29:37.439Z,2.40
2018-08-31T10:30:37.804Z,3.10
2018-08-31T10:31:37.213Z,2.60
2018-08-31T10:32:37.182Z,2.20
2018-08-31T10:33:37.130Z,2.80
2018-08-31T10:34:37.100Z,2.30
2018-08-31T10:35:37.055Z,2.60
2018-08-31T10:36:37.851Z,2.60
2018-08-31T10:37:36.897Z,3.00
2018-08-31T10:38:36.854Z,2.50
2018-08-31T10:39:36.828Z,2.60
2018-08-31T10:40:36.804Z,2.80
2018-08-31T10:41:38.019Z,2.20
2018-08-31T10:42:36.715Z,2.90
2018-08-31T10:43:36.783Z,2.60
2018-08-31T10:44:36.933Z,2.30
2018-08-31T10:45:36.679Z,2.50
2018-08-31T10:46:36.835Z,2.90
2018-08-31T10:47:36.729Z,2.70
2018-08-31T10:48:36.656Z,3.50
2018-08-31T10:49:36.554Z,2.90
2018-08-31T10:50:36.472Z,3.30
2018-08-31T10:51:36.442Z,3.10
2018-08-31T10:52:36.419Z,3.60
2018-08-31T10:53:36.378Z,3.30
2018-08-31T10:54:36.327Z,3.30
2018-08-31T10:55:36.303Z,3.20
2018-08-31T10:56:36.271Z,3.30
2018-08-31T10:57:36.231Z,2.90
2018-08-31T10:58:36.200Z,3.40
2018-08-31T10:59:36.173Z,3.50
2018-08-31T11:00:36.152Z,2.90
2018-08-31T11:01:36.099Z,3.00
2018-08-31T11:02:36.077Z,2.90
2018-08-31T11:03:36.298Z,3.30
2018-08-31T11:04:36.010Z,2.80
2018-08-31T11:05:35.977Z,2.90
2018-08-31T11:06:35.946Z,2.60
2018-08-31T11:07:35.924Z,2.40
2018-08-31T11:08:35.881Z,3.30
2018-08-31T11:09:36.077Z,2.30
2018-08-31T11:10:35.820Z,2.80
2018-08-31T11:11:35.788Z,2.90
2018-08-31T11:12:35.807Z,2.80
2018-08-31T11:13:35.721Z,3.10
2018-08-31T11:14:35.699Z,2.80
2018-08-31T11:15:35.821Z,2.60
2018-08-31T11:16:35.638Z,2.30
2018-08-31T11:17:35.606Z,2.80
2018-08-31T11:18:35.583Z,2.90
2018-08-31T11:19:35.554Z,2.90
2018-08-31T11:20:35.678Z,3.60
2018-08-31T11:21:35.485Z,2.60
2018-08-31T11:22:35.456Z,2.50
2018-08-31T11:23:35.440Z,2.80
2018-08-31T11:25:08.607Z,2.80
2018-08-31T11:25:35.372Z,2.30
2018-08-31T11:26:35.339Z,3.20
2018-08-31T11:27:35.323Z,2.60
2018-08-31T11:37:57.728Z,3.40
2018-08-31T11:38:32.032Z,2.70
2018-08-31T11:39:32.024Z,2.70
2018-08-31T11:40:31.974Z,2.60
2018-08-31T11:41:31.945Z,3.30
2018-08-31T11:42:32.118Z,3.10
2018-08-31T11:43:31.934Z,3.20
2018-08-31T11:44:31.937Z,3.20
2018-08-31T11:45:31.849Z,2.70
2018-08-31T11:46:31.813Z,2.50
2018-08-31T11:47:31.793Z,2.40
2018-08-31T11:48:31.770Z,2.70
2018-08-31T11:49:31.742Z,2.60
2018-08-31T11:50:31.743Z,2.60
2018-08-31T11:51:31.695Z,3.10
2018-08-31T11:52:31.673Z,2.60
2018-08-31T11:53:31.654Z,2.60
2018-08-31T11:54:31.624Z,2.20
2018-08-31T11:55:31.613Z,2.80
2018-08-31T11:56:31.587Z,2.00
2018-08-31T11:57:31.551Z,2.30
2018-08-31T11:58:31.623Z,2.80
2018-08-31T11:59:31.516Z,2.70
2018-08-31T12:00:31.495Z,2.70
2018-08-31T12:01:31.591Z,2.90
2018-08-31T12:02:31.707Z,2.90
2018-08-31T12:03:31.418Z,2.50
2018-08-31T12:04:31.392Z,2.40
2018-08-31T12:05:31.375Z,3.60
2018-08-31T12:06:31.348Z,2.50
2018-08-31T12:07:31.334Z,2.30
2018-08-31T12:08:31.307Z,2.20
2018-08-31T12:09:31.285Z,2.60
2018-08-31T12:10:31.285Z,2.70
2018-08-31T12:11:31.281Z,2.70
2018-08-31T12:12:31.223Z,2.60
2018-08-31T12:13:31.202Z,2.60
2018-08-31T12:14:31.343Z,2.90
2018-08-31T12:15:31.168Z,2.70
2018-08-31T12:16:31.239Z,2.80
2018-08-31T12:17:31.107Z,2.80
2018-08-31T12:18:31.097Z,2.30
2018-08-31T12:19:31.080Z,3.10
2018-08-31T12:20:31.449Z,3.30
2018-08-31T12:21:31.034Z,2.70
2018-08-31T12:22:31.021Z,2.60
2018-08-31T12:23:30.982Z,2.10
2018-08-31T12:24:30.961Z,2.80
2018-08-31T12:25:30.942Z,2.20
2018-08-31T12:26:31.071Z,2.40
2018-08-31T12:27:30.905Z,2.40
2018-08-31T12:28:30.905Z,2.70
2018-08-31T12:29:30.870Z,2.20
2018-08-31T12:30:30.858Z,2.20
2018-08-31T12:31:30.862Z,2.30
2018-08-31T12:32:30.861Z,2.30
2018-08-31T12:33:30.790Z,2.10
2018-08-31T12:34:30.769Z,2.30
2018-08-31T12:35:30.743Z,2.10
2018-08-31T12:36:30.740Z,2.20
2018-08-31T12:37:30.725Z,2.30
2018-08-31T12:38:30.694Z,2.50
2018-08-31T12:39:30.672Z,1.90
2018-08-31T12:40:30.654Z,2.30
2018-08-31T12:41:30.630Z,2.00
2018-08-31T12:42:30.607Z,2.20
2018-08-31T12:43:30.591Z,2.00
2018-08-31T12:44:30.581Z,2.20
2018-08-31T12:45:30.555Z,2.20
2018-08-31T12:46:30.549Z,2.10
2018-08-31T12:47:30.536Z,2.10
2018-08-31T12:48:30.498Z,2.60
2018-08-31T12:49:30.491Z,2.20
2018-08-31T12:50:30.466Z,2.30
2018-08-31T12:51:30.442Z,2.00
2018-08-31T12:52:30.425Z,2.20
2018-08-31T12:53:30.415Z,2.10
2018-08-31T12:54:30.390Z,2.20
2018-08-31T12:55:30.464Z,2.00
2018-08-31T12:56:30.361Z,1.60
2018-08-31T12:57:30.340Z,1.80
2018-08-31T12:58:30.313Z,2.40
2018-08-31T12:59:30.303Z,2.30
2018-08-31T13:00:30.295Z,2.20
2018-08-31T13:01:30.263Z,2.00
2018-08-31T13:02:30.249Z,2.00
2018-08-31T13:03:30.583Z,2.10
2018-08-31T13:04:30.224Z,1.90
2018-08-31T13:05:30.224Z,2.00
2018-08-31T13:06:30.177Z,2.20
2018-08-31T13:07:30.170Z,2.10
2018-08-31T13:08:30.205Z,2.80
2018-08-31T13:09:30.131Z,2.20
2018-08-31T13:10:30.106Z,2.20
2018-08-31T13:11:30.096Z,2.10
2018-08-31T13:12:30.064Z,2.10
2018-08-31T13:13:30.049Z,2.00
2018-08-31T13:14:30.060Z,2.10
2018-08-31T13:15:30.025Z,2.10
2018-08-31T13:16:30.002Z,1.80
2018-08-31T13:17:30.055Z,2.20
2018-08-31T13:18:29.971Z,2.30
2018-08-31T13:19:29.958Z,4.50
2018-08-31T13:20:29.935Z,2.40
2018-08-31T13:21:29.924Z,2.30
2018-08-31T13:22:29.904Z,2.20
2018-08-31T13:23:29.880Z,1.90
2018-08-31T13:24:29.867Z,1.90
2018-08-31T13:25:29.850Z,1.80
2018-08-31T13:26:29.833Z,2.50
2018-08-31T13:27:29.815Z,1.80
2018-08-31T13:28:29.797Z,2.00
2018-08-31T13:29:29.804Z,1.70